Time;durP1;ratioP1;P1;durP2;ratioP2;P2;SDS_P1;SDS_P2;PMS_P1;PMS_P2;Temp;Humidity;BMP_temperature;BMP_pressure;BME280_temperature;BME280_humidity;BME280_pressure;Samples;Min_cycle;Max_cycle;Signal;HPM_P1;HPM_P2
2022/11/13 00:01:09;;;;;;;146.90;45.03;;;5.20;99.90;;;;;;5077903;28;20287;-51
2022/11/13 00:03:39;;;;;;;87.57;37.37;;;5.10;99.90;;;;;;5071688;28;20320;-52
2022/11/13 00:06:07;;;;;;;269.03;101.30;;;5.10;99.90;;;;;;5074328;28;20244;-52
2022/11/13 00:08:35;;;;;;;56.33;33.43;;;5.10;99.90;;;;;;5070833;28;20321;-52
2022/11/13 00:11:05;;;;;;;35.83;19.33;;;5.00;99.90;;;;;;5068615;28;20287;-51
2022/11/13 00:13:34;;;;;;;38.33;22.57;;;5.00;99.90;;;;;;5070911;28;20308;-51
2022/11/13 00:16:04;;;;;;;69.07;34.83;;;5.00;99.90;;;;;;5070950;28;20299;-52
2022/11/13 00:18:35;;;;;;;69.57;38.77;;;5.00;99.90;;;;;;5070703;28;20303;-52
2022/11/13 00:21:09;;;;;;;56.03;36.70;;;5.00;99.90;;;;;;5070863;28;20232;-50
2022/11/13 00:23:37;;;;;;;75.10;46.13;;;5.00;99.90;;;;;;5069919;28;20260;-52
2022/11/13 00:26:07;;;;;;;131.57;39.90;;;5.00;99.90;;;;;;5070862;28;20678;-52
2022/11/13 00:28:35;;;;;;;35.47;18.87;;;4.90;99.90;;;;;;5070081;28;20232;-51
2022/11/13 00:31:04;;;;;;;40.17;27.83;;;4.90;99.90;;;;;;5070022;28;20289;-51
2022/11/13 00:33:32;;;;;;;21.57;15.27;;;4.80;99.90;;;;;;5069273;28;20260;-51
2022/11/13 00:36:24;;;;;;;84.30;45.47;;;4.90;99.90;;;;;;5070416;28;20703;-51
2022/11/13 00:38:53;;;;;;;44.27;26.37;;;4.90;99.90;;;;;;5071291;28;20232;-51
2022/11/13 00:41:22;;;;;;;55.47;34.97;;;4.80;99.90;;;;;;5074126;28;20292;-52
2022/11/13 00:43:51;;;;;;;43.57;23.83;;;4.70;99.90;;;;;;5072145;28;20255;-50
2022/11/13 00:46:19;;;;;;;62.30;41.50;;;4.80;99.90;;;;;;5074040;28;20330;-51
2022/11/13 00:48:47;;;;;;;56.33;32.23;;;4.80;99.90;;;;;;5072049;28;20998;-51
2022/11/13 00:51:15;;;;;;;46.27;22.77;;;4.80;99.90;;;;;;5075639;28;20208;-51
2022/11/13 00:53:45;;;;;;;46.30;33.53;;;4.80;99.90;;;;;;5071414;28;20278;-51
2022/11/13 00:56:13;;;;;;;60.03;32.47;;;4.70;99.90;;;;;;5067992;28;20290;-51
2022/11/13 00:58:41;;;;;;;78.07;44.83;;;4.70;99.90;;;;;;5070214;28;20220;-51
2022/11/13 01:01:11;;;;;;;142.50;59.70;;;4.70;99.90;;;;;;5073916;28;20231;-51
2022/11/13 01:03:40;;;;;;;64.33;38.10;;;4.60;99.90;;;;;;5072496;28;20324;-50
2022/11/13 01:06:13;;;;;;;56.60;32.00;;;4.60;99.90;;;;;;5069024;28;20301;-51
2022/11/13 01:08:41;;;;;;;46.10;23.33;;;4.60;99.90;;;;;;5072001;28;20683;-52
2022/11/13 01:11:12;;;;;;;41.67;24.63;;;4.60;99.90;;;;;;5067311;28;20307;-51
2022/11/13 01:13:41;;;;;;;33.50;20.87;;;4.60;99.90;;;;;;5068951;28;21018;-51
2022/11/13 01:16:11;;;;;;;56.37;33.27;;;4.60;99.90;;;;;;5072724;28;20255;-51
2022/11/13 01:18:41;;;;;;;37.73;17.60;;;4.50;99.90;;;;;;5072412;28;20781;-51
2022/11/13 01:21:11;;;;;;;31.63;18.33;;;4.50;99.90;;;;;;5071507;28;20642;-51
2022/11/13 01:23:39;;;;;;;48.10;26.07;;;4.40;99.90;;;;;;5072463;28;20920;-51
2022/11/13 01:26:12;;;;;;;63.83;31.90;;;4.40;99.90;;;;;;5074413;28;20295;-51
2022/11/13 01:28:41;;;;;;;112.90;53.70;;;4.40;99.90;;;;;;5071469;28;20255;-51
2022/11/13 01:31:12;;;;;;;66.00;40.93;;;4.30;99.90;;;;;;5070517;28;20769;-51
2022/11/13 01:33:40;;;;;;;20.13;16.93;;;4.30;99.90;;;;;;5066936;28;20263;-51
2022/11/13 01:36:11;;;;;;;55.27;42.90;;;4.30;99.90;;;;;;5071866;28;20319;-51
2022/11/13 01:38:39;;;;;;;73.23;42.70;;;4.30;99.90;;;;;;5071062;28;20816;-51
2022/11/13 01:41:11;;;;;;;61.57;37.50;;;4.30;99.90;;;;;;5069234;28;20209;-51
2022/11/13 01:43:39;;;;;;;64.53;41.13;;;4.30;99.90;;;;;;5070380;28;20775;-51
2022/11/13 01:46:15;;;;;;;54.03;35.67;;;4.30;99.90;;;;;;5074387;28;20296;-51
2022/11/13 01:48:47;;;;;;;49.87;27.07;;;4.30;99.90;;;;;;5069338;28;20292;-51
2022/11/13 01:51:22;;;;;;;134.10;55.97;;;4.20;99.90;;;;;;5068412;28;20675;-51
2022/11/13 01:53:50;;;;;;;57.47;36.20;;;4.20;99.90;;;;;;5071444;28;20228;-51
2022/11/13 01:56:21;;;;;;;91.67;42.97;;;4.10;99.90;;;;;;5077127;28;20237;-51
2022/11/13 01:58:53;;;;;;;42.13;28.27;;;4.10;99.90;;;;;;5076128;28;20216;-51
2022/11/13 02:01:22;;;;;;;57.73;30.67;;;4.10;99.90;;;;;;5073916;28;20276;-51
2022/11/13 02:03:50;;;;;;;114.93;66.33;;;4.10;99.90;;;;;;5072808;28;20305;-50
2022/11/13 02:06:20;;;;;;;63.13;37.23;;;4.00;99.90;;;;;;5073722;28;20305;-51
2022/11/13 02:08:50;;;;;;;67.13;41.30;;;4.00;99.90;;;;;;5070685;28;20742;-51
2022/11/13 02:11:20;;;;;;;112.60;59.80;;;4.00;99.90;;;;;;5072679;28;20207;-51
2022/11/13 02:13:49;;;;;;;74.53;51.33;;;4.00;99.90;;;;;;5068990;28;20236;-51
2022/11/13 02:16:19;;;;;;;37.77;25.17;;;4.00;99.90;;;;;;5071977;28;21019;-51
2022/11/13 02:18:47;;;;;;;33.97;23.33;;;4.00;99.90;;;;;;5068791;28;20313;-51
2022/11/13 02:21:32;;;;;;;52.97;33.43;;;4.00;99.90;;;;;;5071369;28;20227;-51
2022/11/13 02:24:14;;;;;;;60.20;38.50;;;4.00;99.90;;;;;;5068393;28;20218;-51
2022/11/13 02:26:43;;;;;;;74.30;51.13;;;3.90;99.90;;;;;;5071352;28;20988;-51
2022/11/13 02:29:11;;;;;;;41.57;20.93;;;3.90;99.90;;;;;;5071354;28;20199;-51
2022/11/13 02:31:39;;;;;;;79.87;63.87;;;3.90;99.90;;;;;;5071421;28;20687;-51
2022/11/13 02:34:07;;;;;;;93.73;54.83;;;3.80;99.90;;;;;;5071003;28;20205;-51
2022/11/13 02:36:36;;;;;;;87.00;53.73;;;3.80;99.90;;;;;;5070562;28;20669;-51
2022/11/13 02:39:06;;;;;;;88.60;60.20;;;3.70;99.90;;;;;;5068283;28;20313;-51
2022/11/13 02:41:37;;;;;;;38.37;20.27;;;3.70;99.90;;;;;;5069897;28;20376;-51
2022/11/13 02:44:06;;;;;;;56.03;34.57;;;3.80;99.90;;;;;;5073674;28;20700;-51
2022/11/13 02:46:34;;;;;;;61.87;38.70;;;3.80;99.90;;;;;;5069195;28;20639;-51
2022/11/13 02:49:03;;;;;;;59.67;50.47;;;3.80;99.90;;;;;;5069659;28;20202;-51
2022/11/13 02:51:31;;;;;;;492.93;210.17;;;3.80;99.90;;;;;;5068193;28;20288;-51
2022/11/13 02:54:00;;;;;;;101.93;65.93;;;3.80;99.90;;;;;;5072468;28;20285;-51
2022/11/13 02:56:28;;;;;;;65.17;41.30;;;3.80;99.90;;;;;;5072133;28;20293;-51
2022/11/13 02:58:57;;;;;;;107.03;79.80;;;3.80;99.90;;;;;;5068071;28;20239;-51
2022/11/13 03:01:25;;;;;;;84.23;48.10;;;3.80;99.90;;;;;;5074887;28;20585;-51
2022/11/13 03:03:53;;;;;;;97.30;57.43;;;3.80;99.90;;;;;;5064815;28;20226;-51
2022/11/13 03:06:25;;;;;;;65.53;42.30;;;3.70;99.90;;;;;;5066922;28;20219;-51
2022/11/13 03:08:53;;;;;;;70.03;43.90;;;3.70;99.90;;;;;;5069340;28;20211;-51
2022/11/13 03:11:21;;;;;;;87.67;65.43;;;3.60;99.90;;;;;;5070340;28;20286;-51
2022/11/13 03:13:49;;;;;;;53.07;28.07;;;3.60;99.90;;;;;;5067063;28;20301;-51
2022/11/13 03:16:19;;;;;;;37.27;22.53;;;3.60;99.90;;;;;;5072353;28;20294;-51
2022/11/13 03:18:47;;;;;;;38.50;20.27;;;3.60;99.90;;;;;;5071639;28;20318;-51
2022/11/13 03:21:16;;;;;;;66.53;42.87;;;3.60;99.90;;;;;;5071517;28;20232;-51
2022/11/13 03:23:44;;;;;;;65.30;44.50;;;3.50;99.90;;;;;;5070805;28;20714;-51
2022/11/13 03:26:15;;;;;;;48.63;29.60;;;3.50;99.90;;;;;;5069291;28;20237;-51
2022/11/13 03:28:43;;;;;;;36.67;27.30;;;3.50;99.90;;;;;;5070570;28;20199;-51
2022/11/13 03:31:12;;;;;;;102.07;67.43;;;3.50;99.90;;;;;;5066138;28;20302;-51
2022/11/13 03:33:41;;;;;;;91.60;61.43;;;3.50;99.90;;;;;;5067184;28;20228;-51
2022/11/13 03:36:09;;;;;;;70.33;46.73;;;3.50;99.90;;;;;;5067866;28;20211;-51
2022/11/13 03:38:37;;;;;;;107.47;76.80;;;3.50;99.90;;;;;;5067831;28;20230;-51
2022/11/13 03:41:05;;;;;;;60.93;49.83;;;3.40;99.90;;;;;;5063589;28;20291;-51
2022/11/13 03:43:33;;;;;;;39.10;16.93;;;3.40;99.90;;;;;;5067421;28;20331;-50
2022/11/13 03:46:02;;;;;;;48.30;23.53;;;3.40;99.90;;;;;;5067758;28;20626;-51
2022/11/13 03:48:30;;;;;;;74.43;42.40;;;3.40;99.90;;;;;;5064785;28;20302;-51
2022/11/13 03:51:00;;;;;;;82.43;52.90;;;3.40;99.90;;;;;;5067434;28;20215;-51
2022/11/13 03:53:28;;;;;;;67.40;40.23;;;3.40;99.90;;;;;;5067006;28;20314;-51
2022/11/13 03:55:56;;;;;;;58.53;33.33;;;3.40;99.90;;;;;;5067444;28;20209;-51
2022/11/13 03:58:24;;;;;;;85.97;52.43;;;3.40;99.90;;;;;;5066711;28;20534;-51
2022/11/13 04:00:54;;;;;;;53.37;34.17;;;3.40;99.90;;;;;;5066279;28;20203;-51
2022/11/13 04:03:23;;;;;;;45.87;22.63;;;3.30;99.90;;;;;;5063171;28;20232;-51
2022/11/13 04:05:51;;;;;;;56.07;36.30;;;3.30;99.90;;;;;;5067642;28;20310;-51
2022/11/13 04:08:21;;;;;;;75.17;50.53;;;3.30;99.90;;;;;;5067071;28;20295;-51
2022/11/13 04:10:49;;;;;;;52.40;25.93;;;3.30;99.90;;;;;;5065664;28;20217;-51
2022/11/13 04:13:17;;;;;;;54.30;29.23;;;3.20;99.90;;;;;;5066189;28;20429;-50
2022/11/13 04:15:45;;;;;;;68.20;47.70;;;3.20;99.90;;;;;;5067579;28;20298;-51
2022/11/13 04:18:13;;;;;;;126.93;40.13;;;3.30;99.90;;;;;;5066469;28;20675;-51
2022/11/13 04:20:41;;;;;;;139.30;79.20;;;3.20;99.90;;;;;;5066225;28;20317;-51
2022/11/13 04:23:11;;;;;;;77.37;41.20;;;3.20;99.90;;;;;;5066897;28;20312;-51
2022/11/13 04:25:41;;;;;;;94.73;68.63;;;3.20;99.90;;;;;;5067552;28;20240;-51
2022/11/13 04:28:09;;;;;;;61.97;39.27;;;3.20;99.90;;;;;;5066444;28;20203;-53
2022/11/13 04:30:37;;;;;;;58.00;34.80;;;3.20;99.90;;;;;;5066989;28;20284;-51
2022/11/13 04:33:06;;;;;;;35.13;14.73;;;3.10;99.90;;;;;;5061949;28;20309;-51
2022/11/13 04:35:34;;;;;;;83.27;57.83;;;3.10;99.90;;;;;;5067386;28;20625;-51
2022/11/13 04:38:03;;;;;;;40.17;23.07;;;3.10;99.90;;;;;;5067486;28;20217;-50
2022/11/13 04:40:31;;;;;;;107.57;48.27;;;3.00;99.90;;;;;;5066778;28;20225;-50
2022/11/13 04:42:59;;;;;;;65.20;34.37;;;3.00;99.90;;;;;;5066623;28;20314;-51
2022/11/13 04:45:27;;;;;;;72.97;43.03;;;3.00;99.90;;;;;;5069819;28;20216;-51
2022/11/13 04:47:55;;;;;;;50.40;32.67;;;3.00;99.90;;;;;;5071674;28;20295;-51
2022/11/13 04:50:24;;;;;;;44.47;24.10;;;3.00;99.90;;;;;;5068095;28;20229;-50
2022/11/13 04:52:52;;;;;;;66.40;37.60;;;3.00;99.90;;;;;;5069561;28;20321;-51
2022/11/13 04:55:20;;;;;;;57.77;45.67;;;3.10;99.90;;;;;;5070096;28;20298;-51
2022/11/13 04:57:50;;;;;;;98.70;68.77;;;3.10;99.90;;;;;;5069649;28;20236;-51
2022/11/13 05:00:20;;;;;;;53.13;27.60;;;3.10;99.90;;;;;;5070488;28;20223;-51
2022/11/13 05:02:48;;;;;;;40.90;18.27;;;3.10;99.90;;;;;;5069498;28;20257;-51
2022/11/13 05:05:16;;;;;;;63.40;43.23;;;3.10;99.90;;;;;;5068025;28;20303;-51
2022/11/13 05:07:44;;;;;;;156.43;60.37;;;3.10;99.90;;;;;;5073314;28;20224;-51
2022/11/13 05:10:12;;;;;;;59.37;40.27;;;3.10;99.90;;;;;;5072863;28;20206;-51
2022/11/13 05:12:40;;;;;;;73.43;56.50;;;3.00;99.90;;;;;;5066196;28;20316;-51
2022/11/13 05:15:09;;;;;;;63.77;44.70;;;3.00;99.90;;;;;;5074094;28;20239;-51
2022/11/13 05:17:38;;;;;;;62.17;41.43;;;3.00;99.90;;;;;;5070538;28;20289;-51
2022/11/13 05:20:08;;;;;;;49.83;35.57;;;3.00;99.90;;;;;;5063889;28;20324;-51
2022/11/13 05:22:36;;;;;;;88.80;50.43;;;3.00;99.90;;;;;;5071377;28;20262;-51
2022/11/13 05:25:04;;;;;;;70.93;41.63;;;3.00;99.90;;;;;;5072642;28;20979;-51
2022/11/13 05:27:32;;;;;;;54.60;38.53;;;3.00;99.90;;;;;;5073815;28;20293;-51
2022/11/13 05:30:00;;;;;;;62.97;31.60;;;3.00;99.90;;;;;;5069587;28;20674;-51
2022/11/13 05:32:29;;;;;;;40.07;26.27;;;3.00;99.90;;;;;;5072955;28;20256;-51
2022/11/13 05:34:58;;;;;;;91.17;60.60;;;3.00;99.90;;;;;;5071573;28;20291;-51
2022/11/13 05:37:28;;;;;;;57.07;24.33;;;2.90;99.90;;;;;;5073150;28;20300;-51
2022/11/13 05:39:56;;;;;;;80.87;54.70;;;2.90;99.90;;;;;;5070999;28;20233;-51
2022/11/13 05:42:24;;;;;;;54.60;41.60;;;2.80;99.90;;;;;;5068895;28;20326;-51
2022/11/13 05:44:52;;;;;;;59.63;37.10;;;2.80;99.90;;;;;;5068222;28;20724;-51
2022/11/13 05:47:20;;;;;;;75.40;41.47;;;2.80;99.90;;;;;;5069920;28;20298;-51
2022/11/13 05:49:48;;;;;;;67.03;48.93;;;2.80;99.90;;;;;;5066840;28;20201;-51
2022/11/13 05:52:17;;;;;;;53.37;34.07;;;2.80;99.90;;;;;;5068597;28;20243;-51
2022/11/13 05:54:45;;;;;;;91.40;59.80;;;2.80;99.90;;;;;;5068904;28;20204;-51
2022/11/13 05:57:13;;;;;;;75.10;47.87;;;2.70;99.90;;;;;;5068591;28;20205;-51
2022/11/13 05:59:41;;;;;;;103.23;59.63;;;2.80;99.90;;;;;;5068937;28;20225;-51
2022/11/13 06:02:10;;;;;;;73.27;48.00;;;2.80;99.90;;;;;;5067976;28;20312;-51
2022/11/13 06:04:38;;;;;;;76.20;50.10;;;2.70;99.90;;;;;;5068611;28;20719;-51
2022/11/13 06:07:06;;;;;;;59.73;39.10;;;2.70;99.90;;;;;;5070484;28;20222;-51
2022/11/13 06:09:36;;;;;;;64.20;33.73;;;2.70;99.90;;;;;;5068172;28;20276;-52
2022/11/13 06:12:04;;;;;;;77.33;57.83;;;2.70;99.90;;;;;;5066885;28;20305;-52
2022/11/13 06:14:32;;;;;;;47.10;27.63;;;2.70;99.90;;;;;;5068409;28;20283;-51
2022/11/13 06:17:00;;;;;;;41.53;27.17;;;2.70;99.90;;;;;;5065925;28;20292;-52
2022/11/13 06:19:28;;;;;;;213.37;76.87;;;2.70;99.90;;;;;;5068401;28;20735;-51
2022/11/13 06:21:56;;;;;;;57.17;36.33;;;2.70;99.90;;;;;;5070539;28;20308;-51
2022/11/13 06:24:24;;;;;;;121.50;91.23;;;2.70;99.90;;;;;;5068275;28;20287;-51
2022/11/13 06:26:54;;;;;;;84.43;58.23;;;2.70;99.90;;;;;;5073551;28;20212;-51
2022/11/13 06:29:22;;;;;;;57.03;39.93;;;2.70;99.90;;;;;;5068157;28;20313;-51
2022/11/13 06:31:50;;;;;;;57.27;35.67;;;2.70;99.90;;;;;;5066854;28;20756;-51
2022/11/13 06:34:18;;;;;;;75.43;37.17;;;2.70;99.90;;;;;;5075223;28;20236;-52
2022/11/13 06:36:46;;;;;;;71.37;51.40;;;2.70;99.90;;;;;;5077479;28;20241;-51
2022/11/13 06:39:14;;;;;;;65.73;42.33;;;2.70;99.90;;;;;;5075154;28;20207;-52
2022/11/13 06:41:43;;;;;;;59.10;37.33;;;2.70;99.90;;;;;;5078955;28;20228;-52
2022/11/13 06:44:12;;;;;;;83.73;56.33;;;2.70;99.90;;;;;;5078261;28;20209;-51
2022/11/13 06:46:40;;;;;;;59.50;38.13;;;2.70;99.90;;;;;;5065215;28;20246;-52
2022/11/13 06:49:08;;;;;;;56.97;25.87;;;2.70;99.90;;;;;;5065380;28;20241;-51
2022/11/13 06:51:36;;;;;;;40.53;27.77;;;2.70;99.90;;;;;;5067584;28;20807;-51
2022/11/13 06:54:05;;;;;;;65.53;43.57;;;2.70;99.90;;;;;;5063156;28;20244;-52
2022/11/13 06:56:33;;;;;;;94.93;62.43;;;2.70;99.90;;;;;;5067843;28;20205;-53
2022/11/13 06:59:01;;;;;;;50.83;34.77;;;2.70;99.90;;;;;;5066909;28;20220;-51
2022/11/13 07:01:36;;;;;;;51.57;23.23;;;2.70;99.90;;;;;;5079077;28;20217;-51
2022/11/13 07:04:05;;;;;;;69.17;48.33;;;2.70;99.90;;;;;;5078601;28;20719;-52
2022/11/13 07:06:33;;;;;;;96.37;68.77;;;2.70;99.90;;;;;;5065833;28;20208;-51
2022/11/13 07:09:07;;;;;;;75.17;52.80;;;2.70;99.90;;;;;;5066624;28;20228;-51
2022/11/13 07:11:35;;;;;;;43.63;30.37;;;2.70;99.90;;;;;;5066091;28;20969;-52
2022/11/13 07:14:05;;;;;;;52.00;32.10;;;2.70;99.90;;;;;;5068201;28;20215;-52
2022/11/13 07:16:33;;;;;;;35.50;18.43;;;2.90;99.90;;;;;;5067753;28;20296;-52
2022/11/13 07:19:22;;;;;;;54.90;36.17;;;2.90;99.90;;;;;;5065888;28;20209;-51
2022/11/13 07:21:50;;;;;;;69.20;41.50;;;3.00;99.90;;;;;;5063018;28;20795;-52
2022/11/13 07:24:19;;;;;;;42.03;26.73;;;3.10;99.90;;;;;;5066537;28;20321;-50
2022/11/13 07:26:47;;;;;;;86.17;40.33;;;3.20;99.90;;;;;;5066413;28;20297;-51
2022/11/13 07:29:15;;;;;;;56.17;37.23;;;3.30;99.90;;;;;;5066463;28;20258;-52
2022/11/13 07:31:43;;;;;;;52.63;36.37;;;3.40;99.90;;;;;;5065812;28;20240;-53
2022/11/13 07:34:13;;;;;;;52.40;31.97;;;3.40;99.90;;;;;;5066744;28;20240;-51
2022/11/13 07:36:42;;;;;;;37.50;23.17;;;3.50;99.90;;;;;;5067489;28;20222;-52
2022/11/13 07:39:11;;;;;;;57.07;36.63;;;3.50;99.90;;;;;;5067304;28;20224;-51
2022/11/13 07:41:39;;;;;;;91.27;63.53;;;3.50;99.90;;;;;;5067493;28;20315;-52
2022/11/13 07:44:07;;;;;;;53.13;34.33;;;3.60;99.90;;;;;;5066999;28;20662;-51
2022/11/13 07:46:36;;;;;;;56.30;33.67;;;3.60;99.90;;;;;;5067523;28;20262;-51
2022/11/13 07:49:05;;;;;;;55.77;35.73;;;3.70;99.90;;;;;;5066530;28;20770;-52
2022/11/13 07:51:33;;;;;;;40.43;22.73;;;3.80;99.90;;;;;;5068010;28;20207;-51
2022/11/13 07:54:02;;;;;;;56.23;39.30;;;3.80;99.90;;;;;;5067576;28;20205;-51
2022/11/13 07:56:30;;;;;;;57.50;32.50;;;3.80;99.90;;;;;;5067270;28;20291;-51
2022/11/13 07:58:58;;;;;;;84.20;52.03;;;3.90;99.90;;;;;;5067346;28;20213;-52
2022/11/13 08:01:27;;;;;;;125.57;68.50;;;3.90;99.90;;;;;;5067716;28;20273;-52
2022/11/13 08:03:55;;;;;;;36.67;21.53;;;3.90;99.90;;;;;;5066598;28;20213;-51
2022/11/13 08:06:23;;;;;;;40.20;29.93;;;3.90;99.90;;;;;;5067297;28;20310;-52
2022/11/13 08:08:51;;;;;;;78.07;47.30;;;3.90;99.90;;;;;;5067374;28;20218;-51
2022/11/13 08:11:20;;;;;;;54.57;31.53;;;4.00;99.90;;;;;;5063870;28;20200;-50
2022/11/13 08:13:48;;;;;;;60.87;40.97;;;4.00;99.90;;;;;;5066633;28;20314;-52
2022/11/13 08:16:16;;;;;;;54.57;35.80;;;4.10;99.90;;;;;;5066969;28;20214;-52
2022/11/13 08:18:44;;;;;;;64.83;41.73;;;4.20;99.90;;;;;;5069516;28;20213;-51
2022/11/13 08:21:13;;;;;;;36.03;25.13;;;4.30;99.90;;;;;;5067584;28;20230;-52
2022/11/13 08:23:42;;;;;;;66.40;39.47;;;4.30;99.90;;;;;;5070207;28;20650;-52
2022/11/13 08:26:11;;;;;;;78.83;40.00;;;4.40;99.90;;;;;;5071559;28;20294;-52
2022/11/13 08:28:41;;;;;;;57.57;33.00;;;4.50;99.90;;;;;;5076312;28;20335;-52
2022/11/13 08:31:12;;;;;;;99.83;53.17;;;4.60;99.90;;;;;;5075629;28;20626;-52
2022/11/13 08:33:40;;;;;;;65.10;40.77;;;4.70;99.90;;;;;;5081253;28;20830;-52
2022/11/13 08:36:10;;;;;;;56.17;36.83;;;4.80;99.90;;;;;;5070421;28;20327;-52
2022/11/13 08:38:38;;;;;;;47.07;28.53;;;4.90;99.90;;;;;;5070037;28;20296;-51
2022/11/13 08:41:07;;;;;;;72.30;42.27;;;4.90;99.90;;;;;;5072476;28;20312;-52
2022/11/13 08:43:36;;;;;;;48.60;29.17;;;5.00;99.90;;;;;;5073853;28;20321;-52
2022/11/13 08:46:06;;;;;;;42.43;23.17;;;5.10;99.90;;;;;;5080364;28;20205;-52
2022/11/13 08:48:36;;;;;;;60.67;38.50;;;5.20;99.90;;;;;;5063434;28;20250;-51
2022/11/13 08:51:05;;;;;;;46.93;25.83;;;5.20;99.90;;;;;;5069850;28;20201;-52
2022/11/13 08:53:33;;;;;;;44.83;21.70;;;5.30;99.90;;;;;;5069455;28;20266;-51
2022/11/13 08:56:02;;;;;;;55.53;34.53;;;5.30;99.90;;;;;;5072367;28;20678;-52
2022/11/13 08:58:30;;;;;;;64.00;35.87;;;5.40;99.90;;;;;;5070091;28;20666;-52
2022/11/13 09:01:03;;;;;;;56.30;29.77;;;5.40;99.90;;;;;;5064953;28;20854;-53
2022/11/13 09:03:34;;;;;;;49.80;18.77;;;5.50;99.90;;;;;;5069319;28;20225;-52
2022/11/13 09:06:06;;;;;;;58.63;20.30;;;5.60;99.90;;;;;;5068773;28;20248;-52
2022/11/13 09:08:34;;;;;;;41.20;23.43;;;5.70;99.90;;;;;;5073330;28;20237;-52
2022/11/13 09:11:04;;;;;;;57.50;31.07;;;5.70;99.90;;;;;;5068193;28;20233;-52
2022/11/13 09:13:33;;;;;;;61.30;33.07;;;5.80;99.90;;;;;;5069133;28;20252;-52
2022/11/13 09:16:07;;;;;;;79.70;29.87;;;5.90;99.90;;;;;;5069410;28;20662;-51
2022/11/13 09:18:36;;;;;;;61.03;34.27;;;5.90;99.90;;;;;;5069406;28;20974;-51
2022/11/13 09:21:05;;;;;;;68.77;41.20;;;6.00;99.90;;;;;;5070231;28;20926;-52
2022/11/13 09:23:34;;;;;;;35.07;18.67;;;6.00;99.90;;;;;;5069771;28;20323;-52
2022/11/13 09:26:03;;;;;;;146.33;54.37;;;6.10;99.90;;;;;;5069582;28;20205;-51
2022/11/13 09:28:31;;;;;;;87.47;34.67;;;6.20;99.90;;;;;;5069232;28;20620;-52
2022/11/13 09:30:59;;;;;;;63.47;36.20;;;6.30;99.90;;;;;;5067628;28;20239;-52
2022/11/13 09:33:27;;;;;;;68.90;32.90;;;6.40;99.90;;;;;;5068950;28;20247;-51
2022/11/13 09:35:57;;;;;;;157.97;41.57;;;6.40;99.90;;;;;;5068943;28;20281;-51
2022/11/13 09:38:25;;;;;;;53.63;30.90;;;6.50;99.90;;;;;;5069152;28;20255;-51
2022/11/13 09:40:57;;;;;;;149.90;54.33;;;6.60;99.90;;;;;;5068527;28;20297;-51
2022/11/13 09:43:33;;;;;;;32.80;13.37;;;6.70;99.90;;;;;;5068979;28;20316;-51
2022/11/13 09:46:05;;;;;;;111.13;49.23;;;6.80;99.90;;;;;;5069095;28;20255;-51
2022/11/13 09:48:36;;;;;;;66.53;28.50;;;6.90;99.90;;;;;;5068449;28;20258;-52
2022/11/13 09:51:13;;;;;;;148.60;37.87;;;6.90;99.90;;;;;;5069133;28;20232;-51
2022/11/13 09:53:41;;;;;;;331.33;101.67;;;7.00;99.90;;;;;;5068788;28;20678;-51
2022/11/13 09:56:22;;;;;;;73.50;44.00;;;7.10;99.90;;;;;;5068988;28;20268;-51
2022/11/13 09:59:00;;;;;;;51.83;32.83;;;7.10;99.90;;;;;;5064821;28;20247;-52
2022/11/13 10:01:34;;;;;;;36.43;22.67;;;7.20;99.90;;;;;;5066750;28;20203;-52
2022/11/13 10:04:07;;;;;;;53.90;31.93;;;7.30;99.90;;;;;;5067762;28;20237;-51
2022/11/13 10:06:54;;;;;;;63.23;43.53;;;7.30;99.90;;;;;;5068297;28;20307;-52
2022/11/13 10:09:34;;;;;;;326.07;108.70;;;7.30;99.90;;;;;;5069201;28;20223;-51
2022/11/13 10:12:06;;;;;;;142.07;70.37;;;7.40;99.90;;;;;;5066044;28;20228;-52
2022/11/13 10:14:41;;;;;;;39.03;21.20;;;7.50;99.90;;;;;;5069235;28;20205;-52
2022/11/13 10:17:15;;;;;;;552.60;123.67;;;7.50;99.90;;;;;;5069056;28;20243;-51
2022/11/13 10:19:51;;;;;;;212.63;79.57;;;7.60;99.90;;;;;;5068486;28;20681;-52
2022/11/13 10:22:28;;;;;;;131.03;50.67;;;7.70;99.90;;;;;;5068159;28;20327;-51
2022/11/13 10:25:10;;;;;;;112.40;50.77;;;7.80;99.90;;;;;;5067059;28;20284;-51
2022/11/13 10:27:39;;;;;;;87.03;43.40;;;7.90;99.90;;;;;;5069009;28;20207;-52
2022/11/13 10:30:14;;;;;;;35.73;20.33;;;8.00;99.90;;;;;;5068463;28;20208;-52
2022/11/13 10:32:43;;;;;;;250.20;97.30;;;8.00;99.90;;;;;;5066986;28;20219;-52
2022/11/13 10:35:44;;;;;;;310.47;99.80;;;8.00;99.90;;;;;;5067086;28;20270;-51
2022/11/13 10:38:22;;;;;;;99.23;41.87;;;8.10;99.90;;;;;;5067812;28;20209;-52
2022/11/13 10:40:51;;;;;;;30.60;20.50;;;8.20;99.90;;;;;;5067811;28;20266;-52
2022/11/13 10:43:22;;;;;;;126.57;38.00;;;8.20;99.90;;;;;;5064822;28;20321;-51
2022/11/13 10:45:58;;;;;;;42.10;29.40;;;8.30;99.90;;;;;;5068829;28;20236;-52
2022/11/13 10:48:27;;;;;;;142.67;67.07;;;8.30;99.90;;;;;;5067466;28;20265;-51
2022/11/13 10:50:59;;;;;;;236.73;76.17;;;8.40;99.90;;;;;;5067343;28;20240;-52
2022/11/13 10:53:38;;;;;;;212.63;68.87;;;8.50;99.90;;;;;;5067588;28;20224;-52
2022/11/13 10:56:25;;;;;;;131.67;55.70;;;8.50;99.90;;;;;;5067973;28;20255;-52
2022/11/13 10:59:09;;;;;;;230.00;113.10;;;8.60;99.90;;;;;;5066117;28;20255;-52
2022/11/13 11:01:37;;;;;;;62.80;32.77;;;8.70;99.90;;;;;;5066602;28;20330;-52
2022/11/13 11:04:06;;;;;;;514.97;160.50;;;8.70;99.90;;;;;;5066599;28;20709;-51
2022/11/13 11:06:37;;;;;;;54.73;30.30;;;8.80;99.90;;;;;;5061925;28;20304;-52
2022/11/13 11:09:29;;;;;;;821.40;295.47;;;8.90;99.90;;;;;;5059263;28;20658;-52
2022/11/13 11:12:15;;;;;;;267.87;103.60;;;8.90;99.90;;;;;;5064812;28;20228;-51
2022/11/13 11:15:10;;;;;;;346.37;99.70;;;8.90;99.90;;;;;;5069177;28;20215;-52
2022/11/13 11:17:45;;;;;;;590.83;210.83;;;9.00;99.90;;;;;;5068157;28;20211;-50
2022/11/13 11:20:30;;;;;;;1408.77;608.20;;;9.50;99.90;;;;;;5062852;28;20292;-52
2022/11/13 11:23:03;;;;;;;1348.97;321.47;;;9.80;99.90;;;;;;5067351;28;20264;-52
2022/11/13 11:25:37;;;;;;;1253.80;489.33;;;10.00;99.90;;;;;;5065690;28;20204;-51
2022/11/13 11:28:12;;;;;;;1571.93;711.40;;;10.10;99.90;;;;;;5065534;28;20403;-51
2022/11/13 11:30:47;;;;;;;1242.67;669.87;;;10.20;99.90;;;;;;5067058;28;20234;-50
2022/11/13 11:33:20;;;;;;;1920.13;756.93;;;10.40;99.90;;;;;;5066077;28;20224;-52
2022/11/13 11:35:53;;;;;;;1999.90;999.90;;;10.40;99.90;;;;;;5066246;28;20205;-52
2022/11/13 11:38:26;;;;;;;1999.90;999.90;;;10.50;99.90;;;;;;5066789;28;20652;-52
2022/11/13 11:41:06;;;;;;;1999.90;999.90;;;10.70;99.90;;;;;;5067536;28;20204;-52
2022/11/13 11:43:42;;;;;;;1999.90;923.23;;;11.00;99.90;;;;;;5065703;28;20351;-51
2022/11/13 11:46:12;;;;;;;1999.90;999.90;;;11.20;99.90;;;;;;5065108;28;20255;-51
2022/11/13 11:48:41;;;;;;;1999.90;999.90;;;11.50;99.90;;;;;;5066461;28;20251;-50
2022/11/13 11:51:21;;;;;;;1999.90;999.90;;;11.70;99.90;;;;;;5067586;28;20236;-52
2022/11/13 11:53:58;;;;;;;1999.90;997.20;;;11.80;99.90;;;;;;5069715;28;20311;-51
2022/11/13 11:56:33;;;;;;;1999.90;854.17;;;11.90;99.90;;;;;;5070490;28;21420;-51
2022/11/13 11:59:30;;;;;;;1999.90;706.33;;;12.00;99.90;;;;;;5071006;28;20235;-51
2022/11/13 12:02:17;;;;;;;1999.90;999.90;;;11.80;99.90;;;;;;5065023;28;20228;-51
2022/11/13 12:05:04;;;;;;;1999.90;999.90;;;11.80;99.90;;;;;;5068689;28;20686;-51
2022/11/13 12:07:41;;;;;;;1999.90;999.90;;;12.00;99.90;;;;;;5071601;28;20217;-51
2022/11/13 12:10:24;;;;;;;1999.90;999.90;;;12.30;99.90;;;;;;5071097;28;20558;-51
2022/11/13 12:13:09;;;;;;;1973.13;999.90;;;12.40;99.90;;;;;;5070303;28;20256;-51
2022/11/13 12:15:47;;;;;;;1998.10;999.90;;;12.40;99.90;;;;;;5071615;28;20248;-51
2022/11/13 12:18:24;;;;;;;1760.20;999.90;;;12.50;99.90;;;;;;5070451;28;20254;-51
2022/11/13 12:21:02;;;;;;;1999.90;999.90;;;12.50;99.90;;;;;;5070987;28;20890;-52
2022/11/13 12:23:43;;;;;;;1783.03;999.90;;;12.50;99.90;;;;;;5069053;28;20285;-51
2022/11/13 12:26:21;;;;;;;1999.90;999.90;;;12.50;99.90;;;;;;5071013;28;20262;-51
2022/11/13 12:29:04;;;;;;;1999.90;999.90;;;12.60;99.90;;;;;;5071132;28;20208;-52
2022/11/13 12:31:45;;;;;;;1999.90;999.90;;;12.60;99.90;;;;;;5070044;28;20572;-52
2022/11/13 12:34:28;;;;;;;1999.90;999.90;;;12.60;99.90;;;;;;5069477;28;20674;-52
2022/11/13 12:36:57;;;;;;;1999.90;999.90;;;12.60;99.90;;;;;;5071320;28;20240;-52
2022/11/13 12:39:39;;;;;;;1811.43;999.90;;;12.80;99.90;;;;;;5069610;28;20200;-51
2022/11/13 12:42:16;;;;;;;1999.90;999.90;;;12.70;99.90;;;;;;5069925;28;20310;-53
2022/11/13 12:44:54;;;;;;;1928.40;999.90;;;12.70;99.90;;;;;;5072309;28;20267;-52
2022/11/13 12:47:23;;;;;;;1416.00;999.90;;;12.70;99.90;;;;;;5062324;28;20228;-51
2022/11/13 12:50:00;;;;;;;1313.40;986.33;;;12.80;99.90;;;;;;5073000;28;20209;-51